Time;durP1;ratioP1;P1;durP2;ratioP2;P2;SDS_P1;SDS_P2;PMS_P1;PMS_P2;Temp;Humidity;BMP_temperature;BMP_pressure;BME280_temperature;BME280_humidity;BME280_pressure;Samples;Min_cycle;Max_cycle;Signal;HPM_P1;HPM_P2
2023/01/05 00:03:13;;;;;;;6.20;5.00;;;;;;;6.73;87.81;97961.64;420706;1304;99136;-42
2023/01/05 00:23:46;;;;;;;5.60;4.50;;;;;;;6.76;88.04;97945.55;420900;1298;99159;-40
2023/01/05 00:33:53;;;;;;;5.30;3.40;;;;;;;6.77;88.11;97929.60;420538;1298;110860;-40
2023/01/05 00:44:00;;;;;;;4.10;3.40;;;;;;;6.81;88.25;97905.95;420688;1299;108163;-41
2023/01/05 00:54:08;;;;;;;4.40;3.40;;;;;;;6.84;88.14;97908.01;420720;1299;99071;-40
2023/01/05 01:04:14;;;;;;;5.40;3.90;;;;;;;6.91;88.21;97892.44;420751;1298;109300;-41
2023/01/05 01:14:21;;;;;;;4.80;3.10;;;;;;;6.95;88.22;97899.21;420719;1291;98026;-41
2023/01/05 01:24:29;;;;;;;6.60;3.50;;;;;;;6.90;88.39;97880.90;420857;1291;111017;-41
2023/01/05 01:34:38;;;;;;;4.00;3.10;;;;;;;6.88;88.61;97868.38;420808;1298;108502;-40
2023/01/05 01:44:56;;;;;;;5.40;3.90;;;;;;;6.88;88.74;97856.88;420777;1291;98345;-41
2023/01/05 01:55:04;;;;;;;5.90;3.90;;;;;;;6.88;88.96;97826.09;420691;1298;107864;-42
2023/01/05 02:05:15;;;;;;;5.80;3.70;;;;;;;6.92;89.17;97813.55;420744;1291;99036;-40
2023/01/05 02:15:22;;;;;;;4.60;4.00;;;;;;;6.94;89.43;97790.48;420836;1291;110747;-42
2023/01/05 02:26:04;;;;;;;6.70;4.70;;;;;;;6.98;90.18;97778.60;420693;1298;107816;-40
2023/01/05 02:36:16;;;;;;;;;;;;;;;7.07;90.42;97772.70;409660;1337;635875;-40
2023/01/05 02:46:30;;;;;;;3.70;3.40;;;;;;;7.11;90.83;97768.22;418740;1284;214898;-44
2023/01/05 02:56:35;;;;;;;4.00;3.60;;;;;;;7.19;91.17;97764.52;418290;1302;106479;-41
2023/01/05 03:37:33;;;;;;;3.70;3.20;;;;;;;7.39;91.52;97732.83;418065;1301;95046;-41
2023/01/05 03:47:40;;;;;;;3.40;1.80;;;;;;;7.52;91.58;97738.61;418018;1294;108451;-41
2023/01/05 03:57:47;;;;;;;2.30;1.40;;;;;;;7.70;91.84;97773.55;418186;1301;107723;-41
2023/01/05 04:07:54;;;;;;;6.90;3.20;;;;;;;7.76;91.78;97763.45;418149;1301;97026;-40
2023/01/05 04:18:01;;;;;;;4.50;1.60;;;;;;;7.72;91.63;97786.91;418123;1308;109437;-41
2023/01/05 04:28:09;;;;;;;6.90;3.20;;;;;;;7.30;91.94;97737.67;417970;1302;96182;-41
2023/01/05 04:38:16;;;;;;;2.00;0.30;;;;;;;6.95;92.19;97756.01;418009;1314;109383;-41
2023/01/05 04:48:23;;;;;;;1.80;0.70;;;;;;;6.98;92.60;97744.10;418160;1308;107846;-40
2023/01/05 04:58:30;;;;;;;1.20;0.40;;;;;;;7.17;92.44;97752.67;418014;1301;96179;-40
2023/01/05 05:08:37;;;;;;;0.30;0.30;;;;;;;7.45;93.32;97763.34;418086;1307;107837;-40
2023/01/05 05:18:45;;;;;;;0.70;0.40;;;;;;;7.50;93.29;97761.75;417923;1308;96464;-41
2023/01/05 05:28:52;;;;;;;1.60;0.50;;;;;;;7.32;92.86;97752.92;418095;1306;108681;-41
2023/01/05 05:38:59;;;;;;;4.80;1.00;;;;;;;7.13;92.78;97728.36;417940;1314;107590;-41
2023/01/05 05:59:13;;;;;;;0.90;0.90;;;;;;;6.96;92.93;97745.95;418069;1306;108489;-40
2023/01/05 06:09:20;;;;;;;3.40;0.60;;;;;;;6.96;93.07;97748.90;417988;1305;96159;-41
2023/01/05 06:19:28;;;;;;;0.70;0.50;;;;;;;6.93;93.06;97755.23;417955;1308;109612;-40
2023/01/05 06:29:35;;;;;;;5.10;2.00;;;;;;;6.89;92.92;97764.36;417920;1301;106591;-40
2023/01/05 06:39:42;;;;;;;2.90;0.90;;;;;;;6.89;93.00;97777.28;418109;1307;96481;-40
2023/01/05 06:49:49;;;;;;;1.50;1.00;;;;;;;6.94;93.29;97775.23;418036;1307;107218;-40
2023/01/05 06:59:57;;;;;;;5.00;1.50;;;;;;;6.95;93.66;97778.93;418018;1308;96264;-40
2023/01/05 07:10:03;;;;;;;5.10;1.40;;;;;;;6.97;93.75;97786.24;418639;1305;111501;-45
2023/01/05 07:20:11;;;;;;;3.30;1.40;;;;;;;7.01;93.72;97791.55;418811;1304;107646;-40
2023/01/05 07:30:18;;;;;;;3.60;1.20;;;;;;;7.11;93.81;97789.20;418583;1297;96450;-40
2023/01/05 07:50:33;;;;;;;58.00;26.60;;;;;;;7.29;93.95;97796.34;418852;1288;95642;-42
2023/01/05 08:00:40;;;;;;;16.60;9.40;;;;;;;7.37;93.82;97799.05;418953;1295;109488;-41
2023/01/05 08:10:47;;;;;;;5.30;3.30;;;;;;;7.49;93.79;97807.87;418981;1297;107756;-40
2023/01/05 08:20:54;;;;;;;3.70;1.90;;;;;;;7.53;93.94;97816.69;418974;1296;96140;-41
2023/01/05 08:31:04;;;;;;;6.00;2.90;;;;;;;7.56;93.86;97819.54;418975;1304;107256;-39
2023/01/05 08:41:11;;;;;;;6.70;3.70;;;;;;;7.59;93.75;97824.77;418922;1301;95874;-40
2023/01/05 08:51:19;;;;;;;7.60;2.90;;;;;;;7.70;93.90;97830.39;418934;1301;109244;-40
2023/01/05 09:01:27;;;;;;;5.90;3.00;;;;;;;8.01;93.89;97817.34;418900;1305;108886;-39
2023/01/05 09:11:34;;;;;;;9.30;4.30;;;;;;;8.04;93.58;97823.67;418943;1293;96153;-39
2023/01/05 09:21:41;;;;;;;4.30;2.30;;;;;;;7.99;93.33;97830.31;418853;1304;107358;-40
2023/01/05 09:31:49;;;;;;;5.50;1.70;;;;;;;7.96;93.48;97826.25;418877;1301;96446;-40
2023/01/05 09:41:59;;;;;;;3.50;1.60;;;;;;;8.04;93.45;97825.73;418861;1304;107650;-39
2023/01/05 09:52:11;;;;;;;7.00;2.40;;;;;;;8.15;93.52;97821.67;419026;1301;106445;-39
2023/01/05 10:02:18;;;;;;;5.10;2.10;;;;;;;8.11;93.20;97819.34;418958;1295;96887;-40
2023/01/05 10:22:57;;;;;;;10.70;4.80;;;;;;;7.86;93.11;97786.98;418952;1296;96265;-41
2023/01/05 10:33:10;;;;;;;7.10;2.80;;;;;;;7.87;93.43;97792.17;418845;1311;111031;-40
2023/01/05 10:43:42;;;;;;;8.50;2.50;;;;;;;7.90;93.54;97770.85;418936;1305;106878;-40
2023/01/05 10:53:49;;;;;;;4.40;1.60;;;;;;;7.85;93.76;97806.01;418900;1288;96137;-41
2023/01/05 11:04:02;;;;;;;2.80;1.00;;;;;;;7.26;93.45;97820.64;418994;1301;108561;-39
2023/01/05 11:14:29;;;;;;;4.10;1.90;;;;;;;6.82;93.39;97812.89;418902;1294;95813;-40
2023/01/05 11:24:37;;;;;;;3.90;1.90;;;;;;;6.61;93.39;97833.55;418907;1304;109137;-40
2023/01/05 11:34:46;;;;;;;8.30;2.70;;;;;;;6.76;93.58;97825.86;418894;1304;107996;-42
2023/01/05 11:44:53;;;;;;;8.10;2.00;;;;;;;7.20;94.26;97818.75;418981;1296;95347;-41
2023/01/05 11:55:00;;;;;;;5.10;2.00;;;;;;;7.69;94.30;97820.52;418935;1302;107740;-41
2023/01/05 12:05:13;;;;;;;6.60;1.70;;;;;;;7.99;93.93;97816.35;418990;1297;96152;-40
2023/01/05 12:15:45;;;;;;;7.10;1.00;;;;;;;8.06;92.68;97827.41;418944;1295;108469;-41
2023/01/05 12:25:55;;;;;;;3.30;1.40;;;;;;;7.77;89.55;97836.08;418840;1296;108286;-41
2023/01/05 12:36:08;;;;;;;0.60;0.50;;;;;;;7.47;85.65;97846.30;419017;1304;95611;-41
2023/01/05 12:46:17;;;;;;;0.70;0.70;;;;;;;7.39;83.20;97841.82;418965;1295;107556;-40
2023/01/05 13:06:36;;;;;;;4.10;0.90;;;;;;;7.29;81.90;97877.59;418978;1296;96250;-41
2023/01/05 13:16:53;;;;;;;2.10;1.10;;;;;;;7.31;82.09;97873.63;418818;1298;107898;-41
2023/01/05 13:27:04;;;;;;;2.40;1.50;;;;;;;7.32;82.45;97874.55;418884;1304;96143;-39
2023/01/05 13:37:30;;;;;;;3.60;0.90;;;;;;;7.15;82.88;97872.27;418976;1304;95429;-40
2023/01/05 13:47:48;;;;;;;3.40;3.10;;;;;;;7.19;83.17;97877.78;418981;1287;110070;-42
2023/01/05 13:58:05;;;;;;;4.60;1.70;;;;;;;7.25;83.08;97876.27;419025;1301;107980;-40
2023/01/05 14:08:14;;;;;;;2.80;1.00;;;;;;;7.31;83.33;97878.36;418929;1304;95548;-39
2023/01/05 14:18:52;;;;;;;6.40;2.00;;;;;;;7.27;83.77;97886.84;419013;1304;109289;-41
2023/01/05 14:28:58;;;;;;;2.90;1.20;;;;;;;7.24;84.16;97900.08;418979;1304;109425;-42
2023/01/05 14:39:07;;;;;;;5.70;1.70;;;;;;;7.24;84.50;97899.19;418909;1304;96246;-40
2023/01/05 14:49:17;;;;;;;6.50;2.20;;;;;;;7.22;85.16;97900.71;418551;1298;543405;-42
2023/01/05 14:59:26;;;;;;;3.30;2.20;;;;;;;7.20;85.38;97911.78;420340;1301;108436;-40
2023/01/05 15:09:54;;;;;;;2.90;1.80;;;;;;;7.21;85.50;97915.73;420372;1294;96262;-41
2023/01/05 15:20:04;;;;;;;3.90;1.60;;;;;;;7.22;85.99;97928.79;420258;1301;109998;-41
2023/01/05 15:40:36;;;;;;;6.40;3.40;;;;;;;6.87;87.47;97982.08;420231;1301;110368;-40
2023/01/05 15:50:47;;;;;;;4.80;2.40;;;;;;;6.69;87.92;97994.11;420337;1297;108277;-40
2023/01/05 16:11:12;;;;;;;6.00;2.00;;;;;;;6.64;87.48;98010.94;420447;1291;109612;-41
2023/01/05 16:21:17;;;;;;;3.10;1.40;;;;;;;6.68;86.94;98018.98;420544;1301;95325;-40
2023/01/05 16:31:37;;;;;;;5.90;2.70;;;;;;;6.62;86.02;98052.06;420490;1301;108209;-40
2023/01/05 16:52:05;;;;;;;6.80;1.90;;;;;;;6.33;86.32;98061.26;420608;1301;95743;-41
2023/01/05 17:12:41;;;;;;;4.70;2.30;;;;;;;6.35;85.97;98080.55;420378;1294;96143;-40
2023/01/05 17:32:55;;;;;;;8.60;3.70;;;;;;;6.44;85.10;98103.33;420393;1294;107718;-39
2023/01/05 17:53:09;;;;;;;5.30;2.40;;;;;;;6.38;84.55;98156.52;420353;1302;95447;-41
2023/01/05 18:03:16;;;;;;;21.30;6.10;;;;;;;6.40;84.19;98178.95;420426;1295;108542;-41
2023/01/05 18:13:23;;;;;;;8.90;3.60;;;;;;;6.34;84.12;98213.19;420301;1301;95594;-39
2023/01/05 18:23:30;;;;;;;4.50;2.70;;;;;;;6.05;82.99;98254.42;420535;1295;108226;-40
2023/01/05 18:33:38;;;;;;;4.30;2.60;;;;;;;5.66;82.16;98274.25;420429;1294;108351;-40
2023/01/05 18:43:45;;;;;;;3.30;1.90;;;;;;;5.41;81.23;98306.80;420360;1298;119048;-40
2023/01/05 18:53:52;;;;;;;5.10;2.70;;;;;;;5.16;80.75;98324.69;420485;1297;107661;-40
2023/01/05 19:04:00;;;;;;;3.30;1.60;;;;;;;5.00;80.36;98344.96;420450;1298;96153;-41
2023/01/05 19:14:07;;;;;;;6.10;2.40;;;;;;;4.86;80.20;98371.26;420511;1292;109421;-38
2023/01/05 19:34:20;;;;;;;4.80;2.50;;;;;;;4.62;79.56;98408.24;420331;1299;97901;-40
2023/01/05 19:44:28;;;;;;;5.70;2.90;;;;;;;4.50;79.62;98415.09;420371;1305;110697;-41
2023/01/05 19:54:34;;;;;;;8.00;2.90;;;;;;;4.39;79.92;98431.64;420305;1301;108155;-40
2023/01/05 20:14:48;;;;;;;8.70;3.40;;;;;;;4.27;80.51;98467.90;420307;1301;109031;-40
2023/01/05 20:24:55;;;;;;;13.00;4.60;;;;;;;4.22;80.82;98480.38;420408;1301;97901;-39
2023/01/05 20:35:03;;;;;;;6.80;3.70;;;;;;;4.19;80.97;98486.49;420400;1285;97854;-40
2023/01/05 20:45:08;;;;;;;9.10;4.30;;;;;;;4.19;80.81;98504.52;420399;1304;109656;-40
2023/01/05 20:55:16;;;;;;;11.00;5.00;;;;;;;4.16;80.92;98521.48;420471;1305;97986;-40
2023/01/05 21:05:25;;;;;;;9.50;3.70;;;;;;;4.10;81.02;98533.38;420391;1302;111636;-40
2023/01/05 21:15:31;;;;;;;5.90;2.50;;;;;;;4.07;81.19;98544.15;420357;1298;108180;-40
2023/01/05 21:25:41;;;;;;;8.20;2.80;;;;;;;4.03;81.34;98559.49;420230;1295;97487;-39
2023/01/05 21:36:07;;;;;;;;;;;;;;;3.98;81.46;98573.04;420285;1301;110598;-40
2023/01/05 21:46:14;;;;;;;8.40;3.30;;;;;;;3.89;81.64;98592.89;420351;1298;106755;-41
2023/01/05 21:56:28;;;;;;;6.90;3.30;;;;;;;3.93;81.64;98611.96;420295;1290;97898;-39
2023/01/05 22:06:35;;;;;;;6.90;3.60;;;;;;;3.94;81.62;98625.66;420299;1298;107456;-42
2023/01/05 22:16:42;;;;;;;7.70;4.50;;;;;;;3.88;81.40;98657.77;420323;1303;97879;-39
2023/01/05 22:26:50;;;;;;;9.10;4.50;;;;;;;3.85;81.34;98678.91;420488;1290;97809;-40
2023/01/05 22:36:57;;;;;;;13.00;5.10;;;;;;;3.88;81.33;98692.77;420366;1303;108542;-40
2023/01/05 22:47:05;;;;;;;9.10;4.40;;;;;;;3.81;81.34;98702.04;420339;1298;98026;-39
2023/01/05 22:57:12;;;;;;;7.40;3.50;;;;;;;3.74;81.47;98716.55;420538;1298;97902;-39
2023/01/05 23:07:21;;;;;;;7.90;3.20;;;;;;;3.73;81.38;98737.41;420392;1307;109483;-39
2023/01/05 23:17:28;;;;;;;4.30;3.20;;;;;;;3.71;81.49;98757.99;420323;1290;106216;-40
2023/01/05 23:27:36;;;;;;;11.50;5.20;;;;;;;3.68;81.76;98776.63;420397;1299;96706;-40
2023/01/05 23:37:43;;;;;;;5.80;2.90;;;;;;;3.64;81.99;98792.83;420395;1294;111182;-39
2023/01/05 23:47:49;;;;;;;6.30;2.90;;;;;;;3.65;81.92;98799.20;420408;1296;108538;-39
2023/01/05 23:57:58;;;;;;;5.70;3.20;;;;;;;3.66;82.07;98803.73;420307;1290;96704;-39
